createdAt,value
2023-03-29T00:00:01.842Z,54.82
2023-03-29T00:02:39.091Z,54.82
2023-03-29T00:05:06.860Z,54.87
2023-03-29T00:07:33.899Z,54.77
2023-03-29T00:10:02.765Z,55.09
2023-03-29T00:12:29.732Z,55.54
2023-03-29T00:14:57.445Z,55.22
2023-03-29T00:17:24.378Z,55.10
2023-03-29T00:19:51.499Z,55.92
2023-03-29T00:22:18.447Z,55.01
2023-03-29T00:24:47.901Z,55.28
2023-03-29T00:27:17.991Z,55.37
2023-03-29T00:30:10.375Z,55.28
2023-03-29T00:32:38.140Z,55.41
2023-03-29T00:35:06.567Z,55.35
2023-03-29T00:37:34.066Z,55.66
2023-03-29T00:40:01.225Z,55.79
2023-03-29T00:42:28.400Z,55.63
2023-03-29T00:45:11.895Z,55.71
2023-03-29T00:47:42.859Z,55.47
2023-03-29T00:50:22.601Z,55.50
2023-03-29T00:52:56.753Z,55.69
2023-03-29T00:55:27.857Z,55.67
2023-03-29T00:57:58.052Z,56.00
2023-03-29T01:00:33.621Z,55.84
2023-03-29T01:03:09.067Z,55.61
2023-03-29T01:05:40.696Z,56.20
2023-03-29T01:08:25.821Z,56.09
2023-03-29T01:10:53.100Z,56.08
2023-03-29T01:13:29.123Z,56.25
2023-03-29T01:15:58.480Z,56.11
2023-03-29T01:18:25.581Z,55.82
2023-03-29T01:21:15.498Z,56.57
2023-03-29T01:24:07.336Z,55.87
2023-03-29T01:26:44.096Z,56.59
2023-03-29T01:29:32.884Z,56.63
2023-03-29T01:32:09.081Z,56.48
2023-03-29T01:34:44.505Z,56.29
2023-03-29T01:37:15.801Z,56.62
2023-03-29T01:39:42.848Z,57.80
2023-03-29T01:42:15.808Z,56.72
2023-03-29T01:45:08.023Z,57.06
2023-03-29T01:47:47.528Z,56.49
2023-03-29T01:50:14.604Z,57.21
2023-03-29T01:52:49.806Z,56.72
2023-03-29T01:55:22.588Z,56.72
2023-03-29T01:57:52.733Z,57.09
2023-03-29T02:00:24.974Z,57.13
2023-03-29T02:02:55.211Z,56.92
2023-03-29T02:05:24.571Z,57.04
2023-03-29T02:07:53.024Z,57.73
2023-03-29T02:10:21.548Z,57.05
2023-03-29T02:12:48.625Z,58.18
2023-03-29T02:15:21.927Z,57.54
2023-03-29T02:17:51.066Z,57.53
2023-03-29T02:20:26.775Z,57.91
2023-03-29T02:23:05.384Z,57.72
2023-03-29T02:25:32.801Z,58.18
2023-03-29T02:28:00.984Z,57.80
2023-03-29T02:30:55.176Z,57.87
2023-03-29T02:33:59.231Z,57.91
2023-03-29T02:36:43.284Z,57.71
2023-03-29T02:39:15.842Z,58.22
2023-03-29T02:41:47.234Z,58.30
2023-03-29T02:44:21.734Z,58.24
2023-03-29T02:46:56.942Z,58.06
2023-03-29T02:49:24.522Z,58.36
2023-03-29T02:51:54.243Z,57.82
2023-03-29T02:54:26.048Z,58.98
2023-03-29T02:56:59.551Z,57.89
2023-03-29T02:59:29.951Z,58.08
2023-03-29T03:01:57.104Z,57.50
2023-03-29T03:04:26.051Z,58.91
2023-03-29T03:06:53.570Z,58.74
2023-03-29T03:09:24.278Z,57.80
2023-03-29T03:11:52.864Z,57.94
2023-03-29T03:14:23.009Z,59.14
2023-03-29T03:16:50.694Z,58.25
2023-03-29T03:19:18.284Z,59.01
2023-03-29T03:21:47.124Z,58.39
2023-03-29T03:24:15.704Z,58.80
2023-03-29T03:26:42.762Z,58.11
2023-03-29T03:29:09.849Z,58.81
2023-03-29T03:32:04.405Z,58.54
2023-03-29T03:34:54.376Z,58.24
2023-03-29T03:37:26.091Z,58.61
2023-03-29T03:39:53.707Z,58.70
2023-03-29T03:42:20.939Z,58.64
2023-03-29T03:44:47.950Z,58.68
2023-03-29T03:47:33.285Z,58.92
2023-03-29T03:50:13.897Z,58.86
2023-03-29T03:52:41.087Z,58.76
2023-03-29T03:55:09.465Z,58.99
2023-03-29T03:58:02.014Z,59.69
2023-03-29T04:00:29.782Z,59.48
2023-03-29T04:03:14.196Z,59.16
2023-03-29T04:05:43.512Z,59.23
2023-03-29T04:08:12.653Z,59.35
2023-03-29T04:11:07.546Z,59.22
2023-03-29T04:13:37.449Z,59.64
2023-03-29T04:16:25.332Z,59.99
2023-03-29T04:18:53.961Z,60.84
2023-03-29T04:21:22.812Z,59.88
2023-03-29T04:23:49.898Z,60.96
2023-03-29T04:26:18.162Z,61.01
2023-03-29T04:28:51.387Z,60.03
2023-03-29T04:31:23.429Z,60.52
2023-03-29T04:34:01.865Z,60.99
2023-03-29T04:36:29.038Z,60.34
2023-03-29T04:38:56.093Z,60.56
2023-03-29T04:41:27.554Z,60.16
2023-03-29T04:44:11.689Z,61.02
2023-03-29T04:46:40.348Z,60.27
2023-03-29T04:49:32.745Z,60.47
2023-03-29T04:52:01.048Z,60.04
2023-03-29T04:54:30.955Z,60.40
2023-03-29T04:57:36.220Z,60.47
2023-03-29T05:00:17.749Z,60.86
2023-03-29T05:03:07.862Z,61.01
2023-03-29T05:05:39.195Z,60.98
2023-03-29T05:08:07.299Z,60.47
2023-03-29T05:10:44.653Z,60.81
2023-03-29T05:13:12.853Z,60.82
2023-03-29T05:15:42.118Z,60.67
2023-03-29T05:18:09.793Z,60.93
2023-03-29T05:20:37.873Z,60.77
2023-03-29T05:23:05.081Z,60.76
2023-03-29T05:25:58.198Z,60.75
2023-03-29T05:28:25.259Z,60.52
2023-03-29T05:31:10.441Z,61.39
2023-03-29T05:33:39.894Z,60.44
2023-03-29T05:36:11.285Z,61.39
2023-03-29T05:38:49.999Z,62.34
2023-03-29T05:41:18.824Z,61.06
2023-03-29T05:44:04.275Z,61.35
2023-03-29T05:46:31.974Z,61.01
2023-03-29T05:49:02.750Z,61.65
2023-03-29T05:51:57.045Z,61.90
2023-03-29T05:54:25.919Z,60.66
2023-03-29T05:57:11.411Z,60.97
2023-03-29T05:59:39.830Z,59.86
2023-03-29T06:02:07.322Z,59.65
2023-03-29T06:04:40.039Z,58.85
2023-03-29T06:07:27.282Z,58.25
2023-03-29T06:10:12.867Z,57.38
2023-03-29T06:12:43.931Z,56.12
2023-03-29T06:15:12.851Z,55.16
2023-03-29T06:18:12.606Z,53.77
2023-03-29T06:20:39.744Z,53.30
2023-03-29T06:23:12.309Z,51.89
2023-03-29T06:25:39.673Z,50.61
2023-03-29T06:28:07.556Z,49.98
2023-03-29T06:30:35.222Z,48.68
2023-03-29T06:33:03.005Z,46.70
2023-03-29T06:35:56.770Z,46.73
2023-03-29T06:38:28.755Z,46.02
2023-03-29T06:41:06.399Z,44.19
2023-03-29T06:44:09.099Z,43.58
2023-03-29T06:47:01.903Z,41.18
2023-03-29T06:49:30.423Z,42.13
2023-03-29T06:52:04.687Z,40.20
2023-03-29T06:54:32.104Z,40.34
2023-03-29T06:57:03.539Z,39.43
2023-03-29T06:59:32.358Z,38.61
2023-03-29T07:02:12.730Z,37.86
2023-03-29T07:04:47.718Z,37.75
2023-03-29T07:07:55.313Z,35.92
2023-03-29T07:10:47.611Z,34.94
2023-03-29T07:13:27.761Z,34.83
2023-03-29T07:15:58.641Z,33.88
2023-03-29T07:18:51.614Z,33.24
2023-03-29T07:21:38.076Z,32.80
2023-03-29T07:24:06.950Z,30.72
2023-03-29T07:26:36.068Z,30.97
2023-03-29T07:29:03.318Z,30.65
2023-03-29T07:31:30.875Z,30.11
2023-03-29T07:34:18.700Z,30.30
2023-03-29T07:36:45.882Z,28.29
2023-03-29T07:39:13.769Z,27.58
2023-03-29T07:41:44.317Z,27.53
2023-03-29T07:44:13.995Z,26.09
2023-03-29T07:46:43.343Z,26.64
2023-03-29T07:49:10.753Z,25.37
2023-03-29T07:51:38.222Z,24.84
2023-03-29T07:54:10.912Z,26.08
2023-03-29T07:56:38.045Z,23.99
2023-03-29T07:59:25.247Z,24.18
2023-03-29T08:02:02.726Z,23.94
2023-03-29T08:04:34.898Z,24.30
2023-03-29T08:07:20.092Z,22.67
2023-03-29T08:09:56.161Z,22.61
2023-03-29T08:12:33.760Z,23.34
2023-03-29T08:15:02.060Z,22.57
2023-03-29T08:17:34.974Z,21.50
2023-03-29T08:20:10.919Z,20.67
2023-03-29T08:22:40.713Z,21.02
2023-03-29T08:25:23.403Z,21.68
2023-03-29T08:27:53.718Z,20.74
2023-03-29T08:30:53.732Z,20.83
2023-03-29T08:33:22.297Z,21.58
2023-03-29T08:35:59.261Z,19.66
2023-03-29T08:38:30.228Z,19.18
2023-03-29T08:40:57.571Z,18.42
2023-03-29T08:43:36.795Z,19.23
2023-03-29T08:46:19.025Z,17.93
2023-03-29T08:48:54.529Z,19.01
2023-03-29T08:51:31.997Z,18.27
2023-03-29T08:54:04.407Z,18.38
2023-03-29T08:56:51.478Z,17.80
2023-03-29T08:59:33.333Z,18.17
2023-03-29T09:02:12.824Z,17.98
2023-03-29T09:04:40.642Z,17.11
2023-03-29T09:07:37.510Z,16.94
2023-03-29T09:10:05.295Z,15.55
2023-03-29T09:13:08.113Z,15.65
2023-03-29T09:15:48.962Z,15.63
2023-03-29T09:19:07.048Z,16.12
2023-03-29T09:21:40.805Z,15.75
2023-03-29T09:24:23.368Z,15.84
2023-03-29T09:27:00.920Z,15.90
2023-03-29T09:29:50.677Z,14.97
2023-03-29T09:32:26.762Z,15.30
2023-03-29T09:35:29.894Z,14.83
2023-03-29T09:37:58.285Z,15.38
2023-03-29T09:40:53.907Z,15.85
2023-03-29T09:43:32.362Z,14.93
2023-03-29T09:46:04.379Z,15.96
2023-03-29T09:48:37.938Z,15.93
2023-03-29T09:51:07.997Z,15.67
2023-03-29T09:53:37.462Z,15.99
2023-03-29T09:56:19.134Z,16.49
2023-03-29T09:58:51.895Z,15.95
2023-03-29T10:01:19.940Z,16.24
2023-03-29T10:03:52.527Z,15.88
2023-03-29T10:06:23.985Z,15.73
2023-03-29T10:08:59.072Z,16.20
2023-03-29T10:11:37.160Z,16.19
2023-03-29T10:14:25.671Z,16.72
2023-03-29T10:16:56.976Z,16.80
2023-03-29T10:19:31.065Z,16.67
2023-03-29T10:22:00.889Z,16.91
2023-03-29T10:24:28.331Z,17.24
2023-03-29T10:27:00.225Z,17.59
2023-03-29T10:29:28.226Z,18.50
2023-03-29T10:31:55.344Z,18.24
2023-03-29T10:34:26.262Z,18.66
2023-03-29T10:37:02.645Z,18.47
2023-03-29T10:39:34.102Z,18.95
2023-03-29T10:42:04.590Z,18.78
2023-03-29T10:44:35.048Z,18.41
2023-03-29T10:47:17.140Z,19.46
2023-03-29T10:49:47.730Z,19.14
2023-03-29T10:52:16.711Z,19.65
2023-03-29T10:54:44.818Z,20.03
2023-03-29T10:57:16.887Z,20.36
2023-03-29T10:59:56.104Z,21.32
2023-03-29T11:02:49.163Z,21.93
2023-03-29T11:05:24.625Z,22.68
2023-03-29T11:08:13.361Z,23.16
2023-03-29T11:10:58.833Z,23.48
2023-03-29T11:13:43.995Z,24.42
2023-03-29T11:16:38.137Z,25.02
2023-03-29T11:19:18.055Z,24.68
2023-03-29T11:22:17.028Z,24.37
2023-03-29T11:25:12.868Z,23.92
2023-03-29T11:27:59.308Z,24.52
2023-03-29T11:30:39.982Z,25.22
2023-03-29T11:33:30.065Z,26.52
2023-03-29T11:36:17.799Z,27.17
2023-03-29T11:39:12.220Z,28.23
2023-03-29T11:41:43.330Z,29.05
2023-03-29T11:44:31.791Z,30.14
2023-03-29T11:47:31.931Z,30.57
2023-03-29T11:50:19.771Z,30.96
2023-03-29T11:53:05.421Z,32.08
2023-03-29T11:55:36.673Z,31.99
2023-03-29T11:58:16.684Z,32.82
2023-03-29T12:00:52.903Z,33.04
2023-03-29T12:03:32.883Z,33.85
2023-03-29T12:06:20.064Z,34.61
2023-03-29T12:08:54.879Z,34.45
2023-03-29T12:11:37.451Z,34.95
2023-03-29T12:14:14.662Z,35.45
2023-03-29T12:16:53.551Z,35.45
2023-03-29T12:19:39.763Z,35.74
2023-03-29T12:22:09.324Z,36.04
2023-03-29T12:24:43.745Z,36.22
2023-03-29T12:27:26.662Z,36.61
2023-03-29T12:30:27.638Z,37.07
2023-03-29T12:33:24.239Z,37.60
2023-03-29T12:36:21.635Z,37.79
2023-03-29T12:39:16.303Z,37.39
2023-03-29T12:42:18.075Z,37.48
2023-03-29T12:45:03.868Z,37.62
2023-03-29T12:47:44.815Z,37.97
2023-03-29T12:50:25.689Z,38.12
2023-03-29T12:52:53.168Z,37.99
2023-03-29T12:55:32.966Z,37.99
2023-03-29T12:58:05.610Z,38.05
2023-03-29T13:01:11.619Z,38.46
2023-03-29T13:03:48.673Z,38.51
2023-03-29T13:06:45.584Z,39.22
2023-03-29T13:09:30.870Z,39.10
2023-03-29T13:12:08.194Z,39.24
2023-03-29T13:14:38.130Z,38.61
2023-03-29T13:17:18.124Z,38.43
2023-03-29T13:19:52.152Z,38.13
2023-03-29T13:22:37.477Z,37.96
2023-03-29T13:25:26.372Z,38.06
2023-03-29T13:28:06.221Z,38.26
2023-03-29T13:30:59.673Z,38.14
2023-03-29T13:33:44.996Z,38.39
2023-03-29T13:36:18.075Z,38.23
2023-03-29T13:38:54.311Z,38.46
2023-03-29T13:41:39.172Z,38.35
2023-03-29T13:44:23.209Z,39.19
2023-03-29T13:47:06.095Z,39.36
2023-03-29T13:49:35.717Z,39.16
2023-03-29T13:52:13.674Z,40.21
2023-03-29T13:54:52.643Z,40.25
2023-03-29T13:57:25.298Z,40.03
2023-03-29T14:00:31.653Z,40.19
2023-03-29T14:03:02.241Z,40.10
2023-03-29T14:05:41.817Z,40.15
2023-03-29T14:08:44.555Z,41.43
2023-03-29T14:11:26.699Z,41.11
2023-03-29T14:13:58.864Z,40.94
2023-03-29T14:16:32.785Z,41.46
2023-03-29T14:19:03.000Z,41.42
2023-03-29T14:21:30.628Z,41.82
2023-03-29T14:24:02.358Z,41.92
2023-03-29T14:26:34.638Z,42.11
2023-03-29T14:29:02.920Z,42.26
2023-03-29T14:31:35.583Z,42.36
2023-03-29T14:34:06.276Z,41.83
2023-03-29T14:36:34.281Z,42.70
2023-03-29T14:39:17.932Z,42.81
2023-03-29T14:41:51.594Z,42.47
2023-03-29T14:44:21.954Z,42.60
2023-03-29T14:46:49.018Z,43.08
2023-03-29T14:49:20.858Z,43.12
2023-03-29T14:51:49.338Z,42.69
2023-03-29T14:54:27.047Z,42.31
2023-03-29T14:56:55.621Z,41.95
2023-03-29T14:59:27.530Z,42.48
2023-03-29T15:01:54.896Z,42.03
2023-03-29T15:04:21.961Z,41.68
2023-03-29T15:06:53.002Z,41.66
2023-03-29T15:09:32.669Z,41.76
2023-03-29T15:12:01.805Z,41.41
2023-03-29T15:14:35.557Z,41.12
2023-03-29T15:17:17.038Z,41.27
2023-03-29T15:19:44.260Z,41.07
2023-03-29T15:22:11.990Z,41.17
2023-03-29T15:24:47.539Z,40.64
2023-03-29T15:27:17.464Z,40.93
2023-03-29T15:29:46.952Z,41.62
2023-03-29T15:32:24.952Z,41.58
2023-03-29T15:34:59.819Z,40.95
2023-03-29T15:37:27.483Z,40.97
2023-03-29T15:39:54.441Z,41.36
2023-03-29T15:42:21.740Z,41.20
2023-03-29T15:44:48.748Z,41.30
2023-03-29T15:47:15.668Z,41.66
2023-03-29T15:49:42.562Z,41.67
2023-03-29T15:52:09.392Z,42.34
2023-03-29T15:54:37.336Z,41.59
2023-03-29T15:57:07.609Z,42.11
2023-03-29T15:59:36.486Z,42.11
2023-03-29T16:02:04.601Z,41.93
2023-03-29T16:04:31.533Z,42.06
2023-03-29T16:06:58.610Z,42.14
2023-03-29T16:09:25.908Z,42.48
2023-03-29T16:11:52.928Z,42.56
2023-03-29T16:14:24.302Z,43.10
2023-03-29T16:16:52.583Z,42.76
2023-03-29T16:19:19.703Z,42.88
2023-03-29T16:21:46.705Z,43.32
2023-03-29T16:24:24.196Z,43.27
2023-03-29T16:26:54.770Z,43.30
2023-03-29T16:29:23.201Z,42.82
2023-03-29T16:31:50.724Z,42.95
2023-03-29T16:34:18.912Z,42.88
2023-03-29T16:36:47.649Z,43.27
2023-03-29T16:39:15.247Z,43.25
2023-03-29T16:41:42.845Z,43.14
2023-03-29T16:44:15.980Z,43.03
2023-03-29T16:46:42.929Z,43.04
2023-03-29T16:49:14.094Z,43.11
2023-03-29T16:51:41.114Z,42.49
2023-03-29T16:54:09.333Z,42.69
2023-03-29T16:56:36.899Z,42.88
2023-03-29T16:59:04.138Z,42.74
2023-03-29T17:01:31.584Z,42.89
2023-03-29T17:03:58.549Z,42.65
2023-03-29T17:06:26.592Z,42.47
2023-03-29T17:08:53.888Z,42.52
2023-03-29T17:11:23.714Z,42.14
2023-03-29T17:13:50.809Z,42.01
2023-03-29T17:16:18.225Z,42.25
2023-03-29T17:18:45.194Z,42.64
2023-03-29T17:21:12.171Z,42.55
2023-03-29T17:23:39.035Z,42.40
2023-03-29T17:26:07.170Z,43.39
2023-03-29T17:28:34.670Z,43.11
2023-03-29T17:31:07.124Z,42.68
2023-03-29T17:33:34.626Z,42.87
2023-03-29T17:36:01.833Z,42.89
2023-03-29T17:38:30.754Z,42.88
2023-03-29T17:40:57.766Z,43.61
2023-03-29T17:43:24.704Z,43.93
2023-03-29T17:45:52.924Z,44.04
2023-03-29T17:48:20.452Z,44.58
2023-03-29T17:50:47.467Z,45.11
2023-03-29T17:53:14.434Z,44.95
2023-03-29T17:55:41.464Z,45.44
2023-03-29T17:58:08.618Z,45.39
2023-03-29T18:00:35.843Z,45.30
2023-03-29T18:03:03.275Z,45.59
2023-03-29T18:05:30.153Z,45.22
2023-03-29T18:07:57.411Z,46.25
2023-03-29T18:10:24.416Z,45.96
2023-03-29T18:12:51.872Z,46.12
2023-03-29T18:15:18.826Z,45.52
2023-03-29T18:17:46.190Z,45.60
2023-03-29T18:20:13.919Z,45.46
2023-03-29T18:22:41.912Z,45.65
2023-03-29T18:25:09.761Z,45.34
2023-03-29T18:27:38.178Z,45.11
2023-03-29T18:30:06.605Z,45.18
2023-03-29T18:32:33.669Z,44.98
2023-03-29T18:35:02.432Z,45.05
2023-03-29T18:37:29.469Z,44.96
2023-03-29T18:39:57.055Z,44.89
2023-03-29T18:42:24.014Z,44.85
2023-03-29T18:44:53.333Z,44.36
2023-03-29T18:47:20.288Z,44.15
2023-03-29T18:49:47.323Z,44.23
2023-03-29T18:52:14.361Z,44.09
2023-03-29T18:54:41.646Z,44.04
2023-03-29T18:57:08.746Z,44.41
2023-03-29T18:59:38.642Z,44.09
2023-03-29T19:02:06.161Z,44.16
2023-03-29T19:04:33.119Z,44.22
2023-03-29T19:07:01.532Z,44.63
2023-03-29T19:09:28.698Z,44.42
2023-03-29T19:11:55.773Z,44.10
2023-03-29T19:14:25.271Z,44.16
2023-03-29T19:16:52.924Z,44.29
2023-03-29T19:19:22.597Z,44.23
2023-03-29T19:21:50.238Z,44.04
2023-03-29T19:24:17.921Z,44.45
2023-03-29T19:26:47.958Z,44.47
2023-03-29T19:29:15.525Z,44.87
2023-03-29T19:31:42.813Z,45.02
2023-03-29T19:34:11.165Z,44.91
2023-03-29T19:36:38.617Z,45.38
2023-03-29T19:39:05.955Z,45.10
2023-03-29T19:41:32.898Z,45.86
2023-03-29T19:43:59.828Z,45.92
2023-03-29T19:46:28.436Z,45.22
2023-03-29T19:48:56.281Z,45.69
2023-03-29T19:51:23.946Z,46.19
2023-03-29T19:53:51.141Z,46.12
2023-03-29T19:56:18.224Z,45.91
2023-03-29T19:58:46.926Z,46.38
2023-03-29T20:01:15.667Z,45.80
2023-03-29T20:03:43.826Z,46.31
2023-03-29T20:06:11.055Z,46.36
2023-03-29T20:08:39.011Z,46.31
2023-03-29T20:11:10.597Z,46.61
2023-03-29T20:13:39.719Z,46.22
2023-03-29T20:16:09.022Z,46.83
2023-03-29T20:18:38.393Z,47.05
2023-03-29T20:21:06.980Z,47.08
2023-03-29T20:23:34.832Z,46.92
2023-03-29T20:26:01.879Z,46.96
2023-03-29T20:28:29.349Z,46.68
2023-03-29T20:30:56.250Z,46.98
2023-03-29T20:33:23.234Z,46.59
2023-03-29T20:35:50.247Z,46.47
2023-03-29T20:38:17.139Z,46.54
2023-03-29T20:40:47.294Z,46.88
2023-03-29T20:43:18.805Z,47.32
2023-03-29T20:45:53.589Z,47.97
2023-03-29T20:48:23.574Z,47.56
2023-03-29T20:50:51.034Z,48.08
2023-03-29T20:53:18.531Z,48.46
2023-03-29T20:55:45.616Z,48.62
2023-03-29T20:58:12.572Z,48.35
2023-03-29T21:00:40.474Z,48.57
2023-03-29T21:03:08.637Z,49.27
2023-03-29T21:05:35.897Z,48.76
2023-03-29T21:08:04.470Z,49.04
2023-03-29T21:10:31.504Z,49.57
2023-03-29T21:13:00.538Z,49.45
2023-03-29T21:15:31.083Z,50.07
2023-03-29T21:17:58.784Z,49.72
2023-03-29T21:20:25.858Z,49.59
2023-03-29T21:22:52.757Z,50.01
2023-03-29T21:25:19.800Z,50.45
2023-03-29T21:27:46.748Z,49.91
2023-03-29T21:30:13.934Z,49.69
2023-03-29T21:32:41.371Z,49.62
2023-03-29T21:35:09.423Z,49.48
2023-03-29T21:37:36.459Z,50.25
2023-03-29T21:40:08.703Z,50.25
2023-03-29T21:42:35.892Z,50.37
2023-03-29T21:45:03.350Z,49.61
2023-03-29T21:47:30.677Z,50.17
2023-03-29T21:49:57.686Z,49.45
2023-03-29T21:52:24.572Z,49.33
2023-03-29T21:54:51.584Z,49.98
2023-03-29T21:57:22.351Z,50.74
2023-03-29T21:59:49.390Z,51.51
2023-03-29T22:02:17.108Z,50.30
2023-03-29T22:04:44.167Z,50.72
2023-03-29T22:07:11.250Z,50.20
2023-03-29T22:09:41.351Z,50.64
2023-03-29T22:12:09.948Z,50.18
2023-03-29T22:14:36.808Z,50.01
2023-03-29T22:17:07.839Z,50.49
2023-03-29T22:19:39.352Z,49.99
2023-03-29T22:22:13.766Z,49.88
2023-03-29T22:24:42.364Z,50.08
2023-03-29T22:27:10.629Z,50.07
2023-03-29T22:29:37.859Z,50.54
2023-03-29T22:32:05.998Z,50.44
2023-03-29T22:34:33.291Z,49.99
2023-03-29T22:37:00.278Z,48.94
2023-03-29T22:39:27.170Z,48.69
2023-03-29T22:41:54.186Z,47.78
2023-03-29T22:44:21.214Z,47.60
2023-03-29T22:46:48.093Z,47.03
2023-03-29T22:49:15.034Z,46.59
2023-03-29T22:51:42.113Z,46.43
2023-03-29T22:54:09.083Z,46.64
2023-03-29T22:56:36.421Z,45.97
2023-03-29T22:59:03.413Z,45.42
2023-03-29T23:01:30.422Z,44.99
2023-03-29T23:03:57.501Z,44.68
2023-03-29T23:06:24.491Z,44.65
2023-03-29T23:08:51.412Z,44.16
2023-03-29T23:11:18.341Z,44.46
2023-03-29T23:13:48.925Z,44.46
2023-03-29T23:16:16.548Z,44.44
2023-03-29T23:18:43.427Z,44.60
2023-03-29T23:21:10.922Z,44.64
2023-03-29T23:23:38.855Z,44.60
2023-03-29T23:26:06.625Z,44.72
2023-03-29T23:28:34.774Z,44.83
2023-03-29T23:31:02.899Z,44.82
2023-03-29T23:33:33.721Z,45.03
2023-03-29T23:36:03.907Z,45.25
2023-03-29T23:38:32.127Z,45.46
2023-03-29T23:41:02.204Z,45.82
2023-03-29T23:43:32.805Z,46.34
2023-03-29T23:46:02.218Z,46.37
2023-03-29T23:48:29.714Z,46.87
2023-03-29T23:50:59.401Z,47.32
2023-03-29T23:53:28.834Z,47.39
2023-03-29T23:56:01.504Z,46.95
2023-03-29T23:58:29.754Z,47.28
